Patsville, Arkansas
Current Conditions -  °F | °C
As of 5:53 AM on Friday 19 Dec 2014 (Local Time) from KLLQ Reporting Station
Overcast Overcast  
Wind Chill:   Ceiling: 2200
Heat Index:   Visibility: 7mi
Dew Point:   Wind: 6mph
Humidity: 89%   Direction: 30°NNE
Pressure: 30.2"   Gusts: NA
Location:  33.37°N, 92.1129°W
Report Text: KLLQ 191153Z AUTO 03005KT 7SM FEW007 OVC022 06/04 A3020 RMK AO2 SLP227 70001 T00610044 10072 20061 53010
Loading
Personal Weather Stations






























Interactive Weather Map New forecast layout! Learn more

10-Day Weather Forecast

Advertisements
Track Severe Weather on mobile